Albert, Oklahoma
Current Conditions -  °F | °C
As of 1:55 AM on Friday 24 Oct 2014 (Local Time) from KOJA Reporting Station
Clear Clear  
Wind Chill: 17°   Ceiling: Unl
Heat Index: 17°   Visibility: 10mi
Dew Point: 14°   Wind: 7mph
Humidity: 82%   Direction: 210°SSW
Pressure: 30.09"   Gusts: NA
Location:  35.23°N, 98.41°W
Report Text: KOJA 240655Z AUTO 21006KT 10SM CLR 17/14 A3009 RMK AO2
Loading
Personal Weather Stations






























Interactive Weather Map
Tropical Storm Tracking
New forecast layout! Learn more

10-Day Weather Forecast

Advertisements
Track Severe Weather on mobile